Cliffwood Lake, New Jersey
Current Conditions -  °F | °C
As of 10:53 PM on Wednesday 26 Nov 2014 (Local Time) from KFWN Reporting Station
Light Snow Light Snow  
Wind Chill: 34°   Ceiling: 4200
Heat Index: 34°   Visibility: 8mi
Dew Point: 30°   Wind: 0mph
Humidity: 85%   Direction: NA
Pressure: 29.85"   Gusts: NA
Location:  41.1122°N, 74.4998°W
Report Text: KFWN 270353Z AUTO 00000KT 8SM -SN FEW032 OVC042 01/M01 A2985 RMK AO2 SLP112 P0000 T00111011
Loading
Personal Weather Stations






























Interactive Weather Map New forecast layout! Learn more

10-Day Weather Forecast

Advertisements
Track Severe Weather on mobile